sensor_id;sensor_type;location;lat;lon;timestamp;P1;durP1;ratioP1;P2;durP2;ratioP2
77524;SDS011;66638;50.050;21.124;2023-12-14T00:00:47;46.30;;;23.80;;
77524;SDS011;66638;50.050;21.124;2023-12-14T00:03:36;46.00;;;22.20;;
77524;SDS011;66638;50.050;21.124;2023-12-14T00:06:24;45.40;;;21.40;;
77524;SDS011;66638;50.050;21.124;2023-12-14T00:09:11;41.20;;;20.80;;
77524;SDS011;66638;50.050;21.124;2023-12-14T00:11:59;40.40;;;20.20;;
77524;SDS011;66638;50.050;21.124;2023-12-14T00:14:47;42.60;;;21.80;;
77524;SDS011;66638;50.050;21.124;2023-12-14T00:17:35;39.60;;;20.70;;
77524;SDS011;66638;50.050;21.124;2023-12-14T00:20:22;37.90;;;21.30;;
77524;SDS011;66638;50.050;21.124;2023-12-14T00:23:10;38.70;;;20.50;;
77524;SDS011;66638;50.050;21.124;2023-12-14T00:25:58;33.60;;;19.10;;
77524;SDS011;66638;50.050;21.124;2023-12-14T00:28:46;34.80;;;20.50;;
77524;SDS011;66638;50.050;21.124;2023-12-14T00:31:34;32.90;;;18.10;;
77524;SDS011;66638;50.050;21.124;2023-12-14T00:34:21;37.10;;;21.10;;
77524;SDS011;66638;50.050;21.124;2023-12-14T00:37:09;37.30;;;19.90;;
77524;SDS011;66638;50.050;21.124;2023-12-14T00:39:57;34.70;;;18.70;;
77524;SDS011;66638;50.050;21.124;2023-12-14T00:42:45;36.90;;;18.90;;
77524;SDS011;66638;50.050;21.124;2023-12-14T00:45:32;34.20;;;18.00;;
77524;SDS011;66638;50.050;21.124;2023-12-14T00:48:20;32.90;;;19.40;;
77524;SDS011;66638;50.050;21.124;2023-12-14T00:51:08;33.30;;;18.80;;
77524;SDS011;66638;50.050;21.124;2023-12-14T00:53:55;30.10;;;15.70;;
77524;SDS011;66638;50.050;21.124;2023-12-14T00:56:43;23.70;;;13.40;;
77524;SDS011;66638;50.050;21.124;2023-12-14T00:59:30;24.60;;;14.00;;
77524;SDS011;66638;50.050;21.124;2023-12-14T01:05:05;23.50;;;13.50;;
77524;SDS011;66638;50.050;21.124;2023-12-14T01:07:53;23.90;;;14.60;;
77524;SDS011;66638;50.050;21.124;2023-12-14T01:10:41;24.20;;;13.50;;
77524;SDS011;66638;50.050;21.124;2023-12-14T01:13:28;20.50;;;12.90;;
77524;SDS011;66638;50.050;21.124;2023-12-14T01:16:16;22.60;;;13.70;;
77524;SDS011;66638;50.050;21.124;2023-12-14T01:19:04;25.50;;;14.30;;
77524;SDS011;66638;50.050;21.124;2023-12-14T01:21:52;24.40;;;13.80;;
77524;SDS011;66638;50.050;21.124;2023-12-14T01:24:40;23.10;;;13.30;;
77524;SDS011;66638;50.050;21.124;2023-12-14T01:27:28;24.50;;;14.20;;
77524;SDS011;66638;50.050;21.124;2023-12-14T01:30:16;22.00;;;12.90;;
77524;SDS011;66638;50.050;21.124;2023-12-14T01:33:04;21.30;;;13.70;;
77524;SDS011;66638;50.050;21.124;2023-12-14T01:38:39;22.10;;;14.00;;
77524;SDS011;66638;50.050;21.124;2023-12-14T01:41:27;25.90;;;15.00;;
77524;SDS011;66638;50.050;21.124;2023-12-14T01:44:15;28.90;;;14.80;;
77524;SDS011;66638;50.050;21.124;2023-12-14T01:47:03;25.40;;;14.10;;
77524;SDS011;66638;50.050;21.124;2023-12-14T01:49:51;22.20;;;13.80;;
77524;SDS011;66638;50.050;21.124;2023-12-14T01:55:26;24.40;;;13.40;;
77524;SDS011;66638;50.050;21.124;2023-12-14T01:58:14;23.20;;;13.00;;
77524;SDS011;66638;50.050;21.124;2023-12-14T02:01:07;28.30;;;13.90;;
77524;SDS011;66638;50.050;21.124;2023-12-14T02:03:57;26.10;;;15.70;;
77524;SDS011;66638;50.050;21.124;2023-12-14T02:06:44;22.40;;;13.00;;
77524;SDS011;66638;50.050;21.124;2023-12-14T02:09:32;22.50;;;12.70;;
77524;SDS011;66638;50.050;21.124;2023-12-14T02:12:19;25.30;;;13.80;;
77524;SDS011;66638;50.050;21.124;2023-12-14T02:15:07;28.20;;;15.00;;
77524;SDS011;66638;50.050;21.124;2023-12-14T02:17:56;22.00;;;12.80;;
77524;SDS011;66638;50.050;21.124;2023-12-14T02:23:31;25.90;;;14.00;;
77524;SDS011;66638;50.050;21.124;2023-12-14T02:26:18;21.50;;;12.70;;
77524;SDS011;66638;50.050;21.124;2023-12-14T02:29:06;21.80;;;12.90;;
77524;SDS011;66638;50.050;21.124;2023-12-14T02:31:54;24.10;;;13.30;;
77524;SDS011;66638;50.050;21.124;2023-12-14T02:34:42;20.20;;;11.70;;
77524;SDS011;66638;50.050;21.124;2023-12-14T02:37:29;21.70;;;11.60;;
77524;SDS011;66638;50.050;21.124;2023-12-14T02:40:17;21.50;;;11.60;;
77524;SDS011;66638;50.050;21.124;2023-12-14T02:43:05;24.00;;;14.40;;
77524;SDS011;66638;50.050;21.124;2023-12-14T02:45:53;23.50;;;14.00;;
77524;SDS011;66638;50.050;21.124;2023-12-14T02:48:42;21.00;;;13.10;;
77524;SDS011;66638;50.050;21.124;2023-12-14T02:51:30;22.20;;;13.00;;
77524;SDS011;66638;50.050;21.124;2023-12-14T02:54:18;19.60;;;12.40;;
77524;SDS011;66638;50.050;21.124;2023-12-14T02:57:06;27.10;;;15.40;;
77524;SDS011;66638;50.050;21.124;2023-12-14T02:59:54;24.10;;;13.80;;
77524;SDS011;66638;50.050;21.124;2023-12-14T03:02:42;25.40;;;14.40;;
77524;SDS011;66638;50.050;21.124;2023-12-14T03:05:30;22.10;;;13.20;;
77524;SDS011;66638;50.050;21.124;2023-12-14T03:08:18;21.60;;;13.20;;
77524;SDS011;66638;50.050;21.124;2023-12-14T03:11:06;24.30;;;13.50;;
77524;SDS011;66638;50.050;21.124;2023-12-14T03:16:40;28.30;;;13.90;;
77524;SDS011;66638;50.050;21.124;2023-12-14T03:19:28;27.70;;;15.10;;
77524;SDS011;66638;50.050;21.124;2023-12-14T03:22:16;26.80;;;14.00;;
77524;SDS011;66638;50.050;21.124;2023-12-14T03:25:04;23.80;;;14.10;;
77524;SDS011;66638;50.050;21.124;2023-12-14T03:27:52;24.10;;;13.40;;
77524;SDS011;66638;50.050;21.124;2023-12-14T03:30:40;27.10;;;14.10;;
77524;SDS011;66638;50.050;21.124;2023-12-14T03:33:27;24.40;;;14.30;;
77524;SDS011;66638;50.050;21.124;2023-12-14T03:36:15;26.80;;;14.60;;
77524;SDS011;66638;50.050;21.124;2023-12-14T03:39:03;24.30;;;14.70;;
77524;SDS011;66638;50.050;21.124;2023-12-14T03:41:51;26.30;;;14.30;;
77524;SDS011;66638;50.050;21.124;2023-12-14T03:44:38;23.90;;;12.90;;
77524;SDS011;66638;50.050;21.124;2023-12-14T03:47:26;31.10;;;15.50;;
77524;SDS011;66638;50.050;21.124;2023-12-14T03:50:14;28.80;;;14.70;;
77524;SDS011;66638;50.050;21.124;2023-12-14T03:53:01;30.70;;;15.50;;
77524;SDS011;66638;50.050;21.124;2023-12-14T03:55:48;33.90;;;16.50;;
77524;SDS011;66638;50.050;21.124;2023-12-14T03:58:36;36.70;;;17.90;;
77524;SDS011;66638;50.050;21.124;2023-12-14T04:04:11;38.10;;;18.50;;
77524;SDS011;66638;50.050;21.124;2023-12-14T04:06:59;36.00;;;18.00;;
77524;SDS011;66638;50.050;21.124;2023-12-14T04:09:47;36.00;;;18.30;;
77524;SDS011;66638;50.050;21.124;2023-12-14T04:12:36;39.80;;;19.90;;
77524;SDS011;66638;50.050;21.124;2023-12-14T04:15:24;42.30;;;19.00;;
77524;SDS011;66638;50.050;21.124;2023-12-14T04:18:11;38.10;;;18.50;;
77524;SDS011;66638;50.050;21.124;2023-12-14T04:23:47;42.80;;;20.00;;
77524;SDS011;66638;50.050;21.124;2023-12-14T04:26:34;46.90;;;21.10;;
77524;SDS011;66638;50.050;21.124;2023-12-14T04:29:22;43.00;;;21.50;;
77524;SDS011;66638;50.050;21.124;2023-12-14T04:32:10;39.60;;;19.10;;
77524;SDS011;66638;50.050;21.124;2023-12-14T04:34:58;35.90;;;19.50;;
77524;SDS011;66638;50.050;21.124;2023-12-14T04:40:33;42.00;;;20.60;;
77524;SDS011;66638;50.050;21.124;2023-12-14T04:43:20;44.60;;;22.10;;
77524;SDS011;66638;50.050;21.124;2023-12-14T04:46:08;51.90;;;28.70;;
77524;SDS011;66638;50.050;21.124;2023-12-14T04:48:56;46.40;;;26.10;;
77524;SDS011;66638;50.050;21.124;2023-12-14T04:51:44;43.40;;;22.20;;
77524;SDS011;66638;50.050;21.124;2023-12-14T04:54:31;44.60;;;20.70;;
77524;SDS011;66638;50.050;21.124;2023-12-14T04:57:20;43.10;;;23.00;;
77524;SDS011;66638;50.050;21.124;2023-12-14T05:00:08;41.90;;;21.00;;
77524;SDS011;66638;50.050;21.124;2023-12-14T05:02:56;39.90;;;18.80;;
77524;SDS011;66638;50.050;21.124;2023-12-14T05:05:44;42.00;;;19.90;;
77524;SDS011;66638;50.050;21.124;2023-12-14T05:08:32;44.60;;;19.30;;
77524;SDS011;66638;50.050;21.124;2023-12-14T05:11:20;40.70;;;19.80;;
77524;SDS011;66638;50.050;21.124;2023-12-14T05:14:08;39.30;;;20.80;;
77524;SDS011;66638;50.050;21.124;2023-12-14T05:16:56;40.80;;;19.50;;
77524;SDS011;66638;50.050;21.124;2023-12-14T05:22:32;41.10;;;17.50;;
77524;SDS011;66638;50.050;21.124;2023-12-14T05:25:20;38.00;;;19.90;;
77524;SDS011;66638;50.050;21.124;2023-12-14T05:28:08;37.30;;;18.80;;
77524;SDS011;66638;50.050;21.124;2023-12-14T05:33:42;37.90;;;18.60;;
77524;SDS011;66638;50.050;21.124;2023-12-14T05:36:30;40.60;;;18.60;;
77524;SDS011;66638;50.050;21.124;2023-12-14T05:39:18;40.40;;;20.00;;
77524;SDS011;66638;50.050;21.124;2023-12-14T05:42:06;42.60;;;19.60;;
77524;SDS011;66638;50.050;21.124;2023-12-14T05:44:54;43.30;;;19.50;;
77524;SDS011;66638;50.050;21.124;2023-12-14T05:47:41;37.30;;;18.30;;
77524;SDS011;66638;50.050;21.124;2023-12-14T05:50:29;42.10;;;20.90;;
77524;SDS011;66638;50.050;21.124;2023-12-14T05:53:17;43.10;;;20.70;;
77524;SDS011;66638;50.050;21.124;2023-12-14T05:56:05;42.10;;;20.50;;
77524;SDS011;66638;50.050;21.124;2023-12-14T05:58:53;41.70;;;19.70;;
77524;SDS011;66638;50.050;21.124;2023-12-14T06:01:41;45.60;;;21.90;;
77524;SDS011;66638;50.050;21.124;2023-12-14T06:04:30;43.30;;;21.00;;
77524;SDS011;66638;50.050;21.124;2023-12-14T06:07:18;38.50;;;20.30;;
77524;SDS011;66638;50.050;21.124;2023-12-14T06:10:06;39.50;;;19.00;;
77524;SDS011;66638;50.050;21.124;2023-12-14T06:12:54;40.80;;;20.40;;
77524;SDS011;66638;50.050;21.124;2023-12-14T06:15:41;41.40;;;18.70;;
77524;SDS011;66638;50.050;21.124;2023-12-14T06:18:30;42.90;;;21.20;;
77524;SDS011;66638;50.050;21.124;2023-12-14T06:21:17;44.80;;;19.80;;
77524;SDS011;66638;50.050;21.124;2023-12-14T06:24:05;45.60;;;21.10;;
77524;SDS011;66638;50.050;21.124;2023-12-14T06:26:53;40.40;;;19.00;;
77524;SDS011;66638;50.050;21.124;2023-12-14T06:32:29;42.60;;;20.20;;
77524;SDS011;66638;50.050;21.124;2023-12-14T06:35:16;38.30;;;18.30;;
77524;SDS011;66638;50.050;21.124;2023-12-14T06:38:04;44.40;;;20.60;;
77524;SDS011;66638;50.050;21.124;2023-12-14T06:40:52;43.10;;;19.90;;
77524;SDS011;66638;50.050;21.124;2023-12-14T06:43:40;39.50;;;18.80;;
77524;SDS011;66638;50.050;21.124;2023-12-14T06:46:28;42.60;;;21.00;;
77524;SDS011;66638;50.050;21.124;2023-12-14T06:49:15;46.00;;;20.70;;
77524;SDS011;66638;50.050;21.124;2023-12-14T06:54:51;40.40;;;17.90;;
77524;SDS011;66638;50.050;21.124;2023-12-14T06:57:38;41.40;;;18.50;;
77524;SDS011;66638;50.050;21.124;2023-12-14T07:03:14;37.50;;;17.90;;
77524;SDS011;66638;50.050;21.124;2023-12-14T07:06:02;35.60;;;18.70;;
77524;SDS011;66638;50.050;21.124;2023-12-14T07:08:50;38.70;;;17.40;;
77524;SDS011;66638;50.050;21.124;2023-12-14T07:14:25;43.50;;;19.80;;
77524;SDS011;66638;50.050;21.124;2023-12-14T07:20:00;45.90;;;20.80;;
77524;SDS011;66638;50.050;21.124;2023-12-14T07:22:48;46.70;;;20.70;;
77524;SDS011;66638;50.050;21.124;2023-12-14T07:28:23;44.10;;;20.90;;
77524;SDS011;66638;50.050;21.124;2023-12-14T07:31:11;47.30;;;20.90;;
77524;SDS011;66638;50.050;21.124;2023-12-14T07:33:59;40.30;;;20.10;;
77524;SDS011;66638;50.050;21.124;2023-12-14T07:39:35;42.40;;;18.90;;
77524;SDS011;66638;50.050;21.124;2023-12-14T07:42:23;37.30;;;17.60;;
77524;SDS011;66638;50.050;21.124;2023-12-14T07:45:11;41.80;;;19.00;;
77524;SDS011;66638;50.050;21.124;2023-12-14T07:47:59;39.80;;;18.50;;
77524;SDS011;66638;50.050;21.124;2023-12-14T07:50:47;45.10;;;21.40;;
77524;SDS011;66638;50.050;21.124;2023-12-14T07:53:35;43.90;;;20.50;;
77524;SDS011;66638;50.050;21.124;2023-12-14T07:56:24;45.00;;;21.70;;
77524;SDS011;66638;50.050;21.124;2023-12-14T07:59:14;49.70;;;20.00;;
77524;SDS011;66638;50.050;21.124;2023-12-14T08:02:02;42.60;;;21.40;;
77524;SDS011;66638;50.050;21.124;2023-12-14T08:04:51;46.30;;;20.80;;
77524;SDS011;66638;50.050;21.124;2023-12-14T08:07:39;44.40;;;18.60;;
77524;SDS011;66638;50.050;21.124;2023-12-14T08:10:27;49.00;;;21.70;;
77524;SDS011;66638;50.050;21.124;2023-12-14T08:13:15;45.50;;;21.30;;
77524;SDS011;66638;50.050;21.124;2023-12-14T08:16:03;42.80;;;20.80;;
77524;SDS011;66638;50.050;21.124;2023-12-14T08:18:50;43.60;;;21.00;;
77524;SDS011;66638;50.050;21.124;2023-12-14T08:21:38;34.60;;;17.60;;
77524;SDS011;66638;50.050;21.124;2023-12-14T08:24:26;42.20;;;20.50;;
77524;SDS011;66638;50.050;21.124;2023-12-14T08:27:14;37.90;;;19.20;;
77524;SDS011;66638;50.050;21.124;2023-12-14T08:30:02;44.50;;;20.50;;
77524;SDS011;66638;50.050;21.124;2023-12-14T08:32:50;36.40;;;17.90;;
77524;SDS011;66638;50.050;21.124;2023-12-14T08:35:37;35.70;;;18.50;;
77524;SDS011;66638;50.050;21.124;2023-12-14T08:41:13;45.70;;;20.50;;
77524;SDS011;66638;50.050;21.124;2023-12-14T08:44:01;42.70;;;21.40;;
77524;SDS011;66638;50.050;21.124;2023-12-14T08:46:49;45.20;;;21.60;;
77524;SDS011;66638;50.050;21.124;2023-12-14T08:49:37;38.80;;;19.10;;
77524;SDS011;66638;50.050;21.124;2023-12-14T08:52:25;37.80;;;17.80;;
77524;SDS011;66638;50.050;21.124;2023-12-14T08:55:13;37.30;;;16.70;;
77524;SDS011;66638;50.050;21.124;2023-12-14T08:58:01;38.50;;;17.80;;
77524;SDS011;66638;50.050;21.124;2023-12-14T09:00:49;37.20;;;19.20;;
77524;SDS011;66638;50.050;21.124;2023-12-14T09:03:40;36.40;;;16.50;;
77524;SDS011;66638;50.050;21.124;2023-12-14T09:09:15;48.10;;;18.70;;
77524;SDS011;66638;50.050;21.124;2023-12-14T09:12:03;41.30;;;18.90;;
77524;SDS011;66638;50.050;21.124;2023-12-14T09:17:38;44.80;;;18.00;;
77524;SDS011;66638;50.050;21.124;2023-12-14T09:23:12;41.30;;;19.30;;
77524;SDS011;66638;50.050;21.124;2023-12-14T09:26:01;41.40;;;19.70;;
77524;SDS011;66638;50.050;21.124;2023-12-14T09:28:48;46.10;;;19.80;;
77524;SDS011;66638;50.050;21.124;2023-12-14T09:31:36;36.50;;;17.00;;
77524;SDS011;66638;50.050;21.124;2023-12-14T09:34:23;36.20;;;17.50;;
77524;SDS011;66638;50.050;21.124;2023-12-14T09:37:11;37.80;;;17.50;;
77524;SDS011;66638;50.050;21.124;2023-12-14T09:40:01;35.30;;;17.10;;
77524;SDS011;66638;50.050;21.124;2023-12-14T09:42:50;38.60;;;17.80;;
77524;SDS011;66638;50.050;21.124;2023-12-14T09:45:38;37.30;;;16.70;;
77524;SDS011;66638;50.050;21.124;2023-12-14T09:48:28;35.90;;;17.00;;
77524;SDS011;66638;50.050;21.124;2023-12-14T09:51:17;32.20;;;16.60;;
77524;SDS011;66638;50.050;21.124;2023-12-14T09:54:05;30.40;;;15.10;;
77524;SDS011;66638;50.050;21.124;2023-12-14T09:56:53;39.10;;;16.50;;
77524;SDS011;66638;50.050;21.124;2023-12-14T09:59:40;33.00;;;15.30;;
77524;SDS011;66638;50.050;21.124;2023-12-14T10:02:29;27.90;;;15.40;;
77524;SDS011;66638;50.050;21.124;2023-12-14T10:05:17;35.00;;;17.20;;
77524;SDS011;66638;50.050;21.124;2023-12-14T10:08:05;29.80;;;16.00;;
77524;SDS011;66638;50.050;21.124;2023-12-14T10:10:53;28.00;;;14.20;;
77524;SDS011;66638;50.050;21.124;2023-12-14T10:13:42;25.80;;;13.50;;
77524;SDS011;66638;50.050;21.124;2023-12-14T10:16:32;29.60;;;14.50;;
77524;SDS011;66638;50.050;21.124;2023-12-14T10:19:20;26.00;;;15.20;;
77524;SDS011;66638;50.050;21.124;2023-12-14T10:22:08;32.50;;;15.70;;
77524;SDS011;66638;50.050;21.124;2023-12-14T10:24:56;29.30;;;15.50;;
77524;SDS011;66638;50.050;21.124;2023-12-14T10:27:47;33.90;;;17.40;;
77524;SDS011;66638;50.050;21.124;2023-12-14T10:30:36;31.00;;;16.10;;
77524;SDS011;66638;50.050;21.124;2023-12-14T10:33:23;36.50;;;18.00;;
77524;SDS011;66638;50.050;21.124;2023-12-14T10:36:15;33.80;;;17.20;;
77524;SDS011;66638;50.050;21.124;2023-12-14T10:39:06;36.00;;;17.00;;
77524;SDS011;66638;50.050;21.124;2023-12-14T10:41:55;35.90;;;18.70;;
77524;SDS011;66638;50.050;21.124;2023-12-14T10:44:44;34.80;;;15.90;;
77524;SDS011;66638;50.050;21.124;2023-12-14T10:47:33;34.10;;;17.80;;
77524;SDS011;66638;50.050;21.124;2023-12-14T10:50:21;35.80;;;17.00;;
77524;SDS011;66638;50.050;21.124;2023-12-14T10:53:11;34.90;;;16.50;;
77524;SDS011;66638;50.050;21.124;2023-12-14T10:56:00;37.50;;;20.10;;
77524;SDS011;66638;50.050;21.124;2023-12-14T10:58:52;32.90;;;16.70;;
77524;SDS011;66638;50.050;21.124;2023-12-14T11:01:43;36.20;;;17.30;;
77524;SDS011;66638;50.050;21.124;2023-12-14T11:07:38;36.00;;;18.50;;
77524;SDS011;66638;50.050;21.124;2023-12-14T11:10:40;33.00;;;17.70;;
77524;SDS011;66638;50.050;21.124;2023-12-14T11:13:31;32.30;;;16.70;;
77524;SDS011;66638;50.050;21.124;2023-12-14T11:16:22;37.70;;;17.60;;
77524;SDS011;66638;50.050;21.124;2023-12-14T11:22:13;32.60;;;15.40;;
77524;SDS011;66638;50.050;21.124;2023-12-14T11:25:11;34.20;;;18.20;;
77524;SDS011;66638;50.050;21.124;2023-12-14T11:28:02;33.10;;;16.90;;
77524;SDS011;66638;50.050;21.124;2023-12-14T11:30:51;31.00;;;17.70;;
77524;SDS011;66638;50.050;21.124;2023-12-14T11:33:39;34.10;;;17.30;;
77524;SDS011;66638;50.050;21.124;2023-12-14T11:36:30;30.30;;;16.90;;
77524;SDS011;66638;50.050;21.124;2023-12-14T11:39:18;31.90;;;17.90;;
77524;SDS011;66638;50.050;21.124;2023-12-14T11:42:08;33.70;;;17.30;;
77524;SDS011;66638;50.050;21.124;2023-12-14T11:44:57;30.10;;;18.10;;
77524;SDS011;66638;50.050;21.124;2023-12-14T11:47:45;37.10;;;19.50;;
77524;SDS011;66638;50.050;21.124;2023-12-14T11:50:32;34.60;;;18.70;;
77524;SDS011;66638;50.050;21.124;2023-12-14T11:53:22;35.40;;;19.40;;
77524;SDS011;66638;50.050;21.124;2023-12-14T11:56:10;33.90;;;19.60;;
77524;SDS011;66638;50.050;21.124;2023-12-14T11:58:58;32.40;;;17.60;;
77524;SDS011;66638;50.050;21.124;2023-12-14T12:01:56;29.60;;;17.00;;
77524;SDS011;66638;50.050;21.124;2023-12-14T12:04:50;34.10;;;19.60;;
77524;SDS011;66638;50.050;21.124;2023-12-14T12:10:31;30.20;;;16.70;;
77524;SDS011;66638;50.050;21.124;2023-12-14T12:13:19;29.70;;;15.70;;
77524;SDS011;66638;50.050;21.124;2023-12-14T12:16:08;30.80;;;15.70;;
77524;SDS011;66638;50.050;21.124;2023-12-14T12:18:56;33.70;;;17.10;;
77524;SDS011;66638;50.050;21.124;2023-12-14T12:21:44;31.90;;;17.30;;
77524;SDS011;66638;50.050;21.124;2023-12-14T12:24:32;34.30;;;17.60;;
77524;SDS011;66638;50.050;21.124;2023-12-14T12:30:08;33.90;;;17.70;;
77524;SDS011;66638;50.050;21.124;2023-12-14T12:32:56;36.10;;;18.20;;
77524;SDS011;66638;50.050;21.124;2023-12-14T12:35:43;39.20;;;19.50;;
77524;SDS011;66638;50.050;21.124;2023-12-14T12:38:31;37.10;;;17.10;;
77524;SDS011;66638;50.050;21.124;2023-12-14T12:41:19;40.90;;;19.40;;
77524;SDS011;66638;50.050;21.124;2023-12-14T12:44:07;41.50;;;19.00;;
77524;SDS011;66638;50.050;21.124;2023-12-14T12:46:56;43.00;;;19.30;;
77524;SDS011;66638;50.050;21.124;2023-12-14T12:49:46;45.50;;;19.40;;
77524;SDS011;66638;50.050;21.124;2023-12-14T12:52:33;45.50;;;21.60;;
77524;SDS011;66638;50.050;21.124;2023-12-14T12:55:21;45.90;;;19.90;;
77524;SDS011;66638;50.050;21.124;2023-12-14T13:00:56;46.80;;;20.90;;
77524;SDS011;66638;50.050;21.124;2023-12-14T13:03:45;47.80;;;22.50;;
77524;SDS011;66638;50.050;21.124;2023-12-14T13:06:33;46.20;;;21.00;;
77524;SDS011;66638;50.050;21.124;2023-12-14T13:09:20;47.20;;;20.90;;
77524;SDS011;66638;50.050;21.124;2023-12-14T13:12:09;48.80;;;21.30;;
77524;SDS011;66638;50.050;21.124;2023-12-14T13:14:57;54.60;;;21.90;;
77524;SDS011;66638;50.050;21.124;2023-12-14T13:17:44;47.10;;;19.50;;
77524;SDS011;66638;50.050;21.124;2023-12-14T13:20:32;47.40;;;21.40;;
77524;SDS011;66638;50.050;21.124;2023-12-14T13:23:20;47.40;;;19.90;;
77524;SDS011;66638;50.050;21.124;2023-12-14T13:26:08;47.00;;;21.60;;
77524;SDS011;66638;50.050;21.124;2023-12-14T13:28:56;59.00;;;24.80;;
77524;SDS011;66638;50.050;21.124;2023-12-14T13:31:43;46.80;;;19.70;;
77524;SDS011;66638;50.050;21.124;2023-12-14T13:34:31;56.90;;;22.00;;
77524;SDS011;66638;50.050;21.124;2023-12-14T13:37:20;56.70;;;24.60;;
77524;SDS011;66638;50.050;21.124;2023-12-14T13:40:10;50.30;;;22.50;;
77524;SDS011;66638;50.050;21.124;2023-12-14T13:42:57;55.90;;;23.60;;
77524;SDS011;66638;50.050;21.124;2023-12-14T13:45:49;55.30;;;23.70;;
77524;SDS011;66638;50.050;21.124;2023-12-14T13:48:40;53.30;;;24.40;;
77524;SDS011;66638;50.050;21.124;2023-12-14T13:51:28;60.80;;;23.80;;
77524;SDS011;66638;50.050;21.124;2023-12-14T13:54:16;58.20;;;23.90;;
77524;SDS011;66638;50.050;21.124;2023-12-14T13:57:04;53.90;;;24.90;;
77524;SDS011;66638;50.050;21.124;2023-12-14T13:59:52;59.90;;;24.80;;
77524;SDS011;66638;50.050;21.124;2023-12-14T14:05:26;58.00;;;24.90;;
77524;SDS011;66638;50.050;21.124;2023-12-14T14:08:15;65.50;;;27.50;;
77524;SDS011;66638;50.050;21.124;2023-12-14T14:11:03;66.90;;;26.80;;
77524;SDS011;66638;50.050;21.124;2023-12-14T14:13:52;58.30;;;25.20;;
77524;SDS011;66638;50.050;21.124;2023-12-14T14:16:41;67.40;;;26.80;;
77524;SDS011;66638;50.050;21.124;2023-12-14T14:19:29;71.40;;;30.60;;
77524;SDS011;66638;50.050;21.124;2023-12-14T14:22:17;72.40;;;28.90;;
77524;SDS011;66638;50.050;21.124;2023-12-14T14:25:05;62.10;;;25.60;;
77524;SDS011;66638;50.050;21.124;2023-12-14T14:27:54;72.00;;;27.70;;
77524;SDS011;66638;50.050;21.124;2023-12-14T14:30:42;72.00;;;28.50;;
77524;SDS011;66638;50.050;21.124;2023-12-14T14:33:30;71.10;;;26.80;;
77524;SDS011;66638;50.050;21.124;2023-12-14T14:36:18;74.80;;;28.10;;
77524;SDS011;66638;50.050;21.124;2023-12-14T14:39:06;74.60;;;31.00;;
77524;SDS011;66638;50.050;21.124;2023-12-14T14:41:55;71.70;;;30.80;;
77524;SDS011;66638;50.050;21.124;2023-12-14T14:44:43;74.10;;;29.10;;
77524;SDS011;66638;50.050;21.124;2023-12-14T14:47:31;74.70;;;31.10;;
77524;SDS011;66638;50.050;21.124;2023-12-14T14:50:18;67.80;;;30.50;;
77524;SDS011;66638;50.050;21.124;2023-12-14T14:53:06;67.10;;;28.50;;
77524;SDS011;66638;50.050;21.124;2023-12-14T14:55:54;69.00;;;31.10;;
77524;SDS011;66638;50.050;21.124;2023-12-14T14:58:42;72.90;;;30.10;;
77524;SDS011;66638;50.050;21.124;2023-12-14T15:01:33;68.30;;;29.80;;
77524;SDS011;66638;50.050;21.124;2023-12-14T15:04:20;67.90;;;30.10;;
77524;SDS011;66638;50.050;21.124;2023-12-14T15:09:55;71.00;;;29.80;;
77524;SDS011;66638;50.050;21.124;2023-12-14T15:12:43;68.40;;;30.10;;
77524;SDS011;66638;50.050;21.124;2023-12-14T15:15:31;68.60;;;27.40;;
77524;SDS011;66638;50.050;21.124;2023-12-14T15:18:20;66.50;;;31.10;;
77524;SDS011;66638;50.050;21.124;2023-12-14T15:21:08;63.60;;;30.50;;
77524;SDS011;66638;50.050;21.124;2023-12-14T15:23:56;68.20;;;30.50;;
77524;SDS011;66638;50.050;21.124;2023-12-14T15:26:44;69.20;;;31.20;;
77524;SDS011;66638;50.050;21.124;2023-12-14T15:29:31;64.70;;;30.70;;
77524;SDS011;66638;50.050;21.124;2023-12-14T15:35:39;66.50;;;32.10;;
77524;SDS011;66638;50.050;21.124;2023-12-14T15:38:31;62.80;;;30.70;;
77524;SDS011;66638;50.050;21.124;2023-12-14T15:41:25;73.80;;;34.60;;
77524;SDS011;66638;50.050;21.124;2023-12-14T15:44:13;69.70;;;34.20;;
77524;SDS011;66638;50.050;21.124;2023-12-14T15:47:01;69.20;;;33.10;;
77524;SDS011;66638;50.050;21.124;2023-12-14T15:49:49;68.40;;;31.80;;
77524;SDS011;66638;50.050;21.124;2023-12-14T15:52:36;65.70;;;31.10;;
77524;SDS011;66638;50.050;21.124;2023-12-14T15:55:24;65.60;;;32.70;;
77524;SDS011;66638;50.050;21.124;2023-12-14T15:58:12;65.60;;;33.30;;
77524;SDS011;66638;50.050;21.124;2023-12-14T16:01:00;62.30;;;30.10;;
77524;SDS011;66638;50.050;21.124;2023-12-14T16:03:48;66.40;;;31.00;;
77524;SDS011;66638;50.050;21.124;2023-12-14T16:06:36;64.60;;;31.80;;
77524;SDS011;66638;50.050;21.124;2023-12-14T16:09:24;69.40;;;34.80;;
77524;SDS011;66638;50.050;21.124;2023-12-14T16:12:12;64.70;;;31.00;;
77524;SDS011;66638;50.050;21.124;2023-12-14T16:15:00;64.80;;;32.00;;
77524;SDS011;66638;50.050;21.124;2023-12-14T16:17:51;75.40;;;33.00;;
77524;SDS011;66638;50.050;21.124;2023-12-14T16:20:39;92.80;;;50.80;;
77524;SDS011;66638;50.050;21.124;2023-12-14T16:23:29;70.00;;;37.80;;
77524;SDS011;66638;50.050;21.124;2023-12-14T16:26:17;67.70;;;33.90;;
77524;SDS011;66638;50.050;21.124;2023-12-14T16:29:05;81.40;;;42.30;;
77524;SDS011;66638;50.050;21.124;2023-12-14T16:31:53;79.70;;;43.30;;
77524;SDS011;66638;50.050;21.124;2023-12-14T16:34:41;82.40;;;42.30;;
77524;SDS011;66638;50.050;21.124;2023-12-14T16:37:29;68.10;;;35.30;;
77524;SDS011;66638;50.050;21.124;2023-12-14T16:40:18;77.60;;;40.70;;
77524;SDS011;66638;50.050;21.124;2023-12-14T16:43:07;85.10;;;40.30;;
77524;SDS011;66638;50.050;21.124;2023-12-14T16:45:55;77.90;;;40.60;;
77524;SDS011;66638;50.050;21.124;2023-12-14T16:48:43;65.90;;;30.90;;
77524;SDS011;66638;50.050;21.124;2023-12-14T16:51:31;67.30;;;30.60;;
77524;SDS011;66638;50.050;21.124;2023-12-14T16:54:18;64.60;;;31.70;;
77524;SDS011;66638;50.050;21.124;2023-12-14T16:57:06;61.30;;;31.40;;
77524;SDS011;66638;50.050;21.124;2023-12-14T16:59:54;64.40;;;31.50;;
77524;SDS011;66638;50.050;21.124;2023-12-14T17:02:42;58.80;;;29.00;;
77524;SDS011;66638;50.050;21.124;2023-12-14T17:05:30;61.30;;;27.90;;
77524;SDS011;66638;50.050;21.124;2023-12-14T17:08:19;51.40;;;28.20;;
77524;SDS011;66638;50.050;21.124;2023-12-14T17:11:07;56.80;;;28.90;;
77524;SDS011;66638;50.050;21.124;2023-12-14T17:13:55;54.10;;;28.50;;
77524;SDS011;66638;50.050;21.124;2023-12-14T17:16:44;53.60;;;29.30;;
77524;SDS011;66638;50.050;21.124;2023-12-14T17:19:33;54.90;;;26.90;;
77524;SDS011;66638;50.050;21.124;2023-12-14T17:22:22;57.90;;;29.20;;
77524;SDS011;66638;50.050;21.124;2023-12-14T17:25:11;54.20;;;29.10;;
77524;SDS011;66638;50.050;21.124;2023-12-14T17:27:59;71.60;;;36.50;;
77524;SDS011;66638;50.050;21.124;2023-12-14T17:30:48;63.50;;;30.90;;